createdAt,value
2023-01-11T00:01:06.092Z,1.00
2023-01-11T00:03:33.472Z,1.40
2023-01-11T00:06:00.242Z,1.30
2023-01-11T00:08:27.613Z,1.03
2023-01-11T00:10:54.746Z,1.30
2023-01-11T00:13:21.409Z,1.17
2023-01-11T00:15:47.916Z,0.97
2023-01-11T00:18:14.431Z,1.00
2023-01-11T00:20:42.074Z,0.90
2023-01-11T00:23:09.101Z,0.93
2023-01-11T00:25:36.394Z,0.70
2023-01-11T00:28:02.991Z,0.83
2023-01-11T00:30:29.484Z,1.20
2023-01-11T00:32:57.778Z,0.87
2023-01-11T00:35:24.239Z,1.07
2023-01-11T00:37:50.702Z,0.80
2023-01-11T00:40:17.154Z,0.90
2023-01-11T00:43:02.089Z,0.80
2023-01-11T00:45:47.268Z,1.00
2023-01-11T00:48:13.865Z,0.93
2023-01-11T00:50:41.543Z,1.10
2023-01-11T00:53:09.225Z,1.00
2023-01-11T00:55:36.612Z,0.87
2023-01-11T00:58:04.240Z,1.10
2023-01-11T01:00:31.040Z,1.00
2023-01-11T01:02:57.803Z,1.00
2023-01-11T01:05:24.787Z,1.07
2023-01-11T01:07:51.367Z,0.90
2023-01-11T01:10:18.442Z,0.83
2023-01-11T01:13:04.560Z,0.93
2023-01-11T01:15:31.924Z,0.83
2023-01-11T01:17:58.333Z,0.97
2023-01-11T01:20:25.109Z,0.80
2023-01-11T01:22:51.753Z,1.10
2023-01-11T01:25:18.774Z,0.90
2023-01-11T01:27:45.231Z,0.80
2023-01-11T01:30:12.121Z,0.70
2023-01-11T01:32:38.998Z,1.20
2023-01-11T01:35:05.820Z,0.70
2023-01-11T01:37:32.277Z,0.70
2023-01-11T01:39:58.643Z,0.60
2023-01-11T01:42:25.164Z,0.67
2023-01-11T01:45:02.215Z,0.63
2023-01-11T01:47:28.534Z,0.70
2023-01-11T01:49:56.130Z,0.60
2023-01-11T01:52:29.083Z,0.50
2023-01-11T01:54:59.494Z,0.63
2023-01-11T01:57:30.825Z,0.70
2023-01-11T02:00:01.413Z,0.70
2023-01-11T02:02:28.254Z,0.67
2023-01-11T02:04:57.371Z,0.60
2023-01-11T02:07:31.634Z,0.70
2023-01-11T02:10:11.628Z,0.77
2023-01-11T02:12:43.024Z,0.50
2023-01-11T02:15:11.559Z,0.77
2023-01-11T02:17:37.973Z,0.60
2023-01-11T02:20:41.625Z,0.70
2023-01-11T02:23:34.840Z,0.50
2023-01-11T02:26:10.179Z,0.60
2023-01-11T02:28:48.585Z,0.70
2023-01-11T02:31:30.203Z,0.90
2023-01-11T02:34:23.836Z,0.70
2023-01-11T02:36:50.159Z,0.60
2023-01-11T02:39:35.681Z,0.70
2023-01-11T02:42:30.875Z,0.80
2023-01-11T02:45:08.342Z,0.40
2023-01-11T02:47:45.673Z,0.70
2023-01-11T02:50:11.969Z,0.70
2023-01-11T02:53:00.348Z,0.80
2023-01-11T02:55:32.610Z,0.63
2023-01-11T02:58:02.672Z,0.60
2023-01-11T03:00:29.251Z,0.53
2023-01-11T03:03:14.161Z,0.50
2023-01-11T03:05:47.537Z,0.47
2023-01-11T03:08:19.903Z,0.60
2023-01-11T03:11:40.193Z,0.60
2023-01-11T03:14:41.742Z,0.60
2023-01-11T03:17:26.887Z,0.40
2023-01-11T03:19:57.461Z,0.50
2023-01-11T03:22:49.451Z,0.50
2023-01-11T03:25:15.770Z,0.50
2023-01-11T03:27:56.789Z,0.40
2023-01-11T03:30:33.836Z,0.40
2023-01-11T03:33:17.644Z,0.60
2023-01-11T03:36:01.800Z,0.50
2023-01-11T03:38:36.541Z,0.40
2023-01-11T03:41:12.048Z,0.50
2023-01-11T03:43:43.958Z,0.60
2023-01-11T03:46:28.669Z,0.50
2023-01-11T03:49:01.461Z,0.40
2023-01-11T03:51:31.763Z,0.70
2023-01-11T03:54:01.829Z,0.60
2023-01-11T03:57:24.534Z,0.60
2023-01-11T03:59:51.462Z,0.57
2023-01-11T04:02:21.000Z,0.57
2023-01-11T04:04:47.559Z,0.43
2023-01-11T04:07:14.367Z,0.50
2023-01-11T04:09:40.778Z,0.50
2023-01-11T04:12:07.417Z,0.50
2023-01-11T04:14:34.230Z,0.50
2023-01-11T04:17:00.624Z,0.50
2023-01-11T04:19:27.022Z,0.70
2023-01-11T04:21:53.470Z,0.70
2023-01-11T04:24:20.139Z,0.70
2023-01-11T04:26:46.559Z,0.40
2023-01-11T04:29:13.166Z,0.60
2023-01-11T04:31:39.572Z,0.63
2023-01-11T04:34:05.976Z,0.50
2023-01-11T04:36:33.507Z,0.60
2023-01-11T04:39:00.332Z,0.43
2023-01-11T04:41:45.187Z,0.40
2023-01-11T04:44:11.570Z,0.40
2023-01-11T04:46:37.996Z,0.40
2023-01-11T04:49:04.374Z,0.43
2023-01-11T04:51:30.835Z,0.50
2023-01-11T04:53:57.269Z,0.50
2023-01-11T04:56:23.661Z,0.60
2023-01-11T04:58:50.124Z,0.50
2023-01-11T05:01:18.857Z,0.57
2023-01-11T05:03:45.957Z,0.50
2023-01-11T05:06:13.769Z,0.60
2023-01-11T05:08:44.483Z,0.60
2023-01-11T05:11:10.900Z,0.40
2023-01-11T05:13:43.182Z,0.40
2023-01-11T05:16:14.491Z,0.70
2023-01-11T05:18:55.496Z,0.50
2023-01-11T05:21:27.735Z,0.50
2023-01-11T05:23:54.570Z,0.50
2023-01-11T05:26:27.882Z,0.50
2023-01-11T05:28:56.478Z,0.50
2023-01-11T05:31:23.387Z,0.60
2023-01-11T05:33:49.853Z,0.70
2023-01-11T05:36:21.548Z,0.50
2023-01-11T05:38:50.098Z,0.50
2023-01-11T05:41:18.629Z,0.50
2023-01-11T05:44:05.383Z,0.63
2023-01-11T05:46:33.474Z,0.70
2023-01-11T05:49:01.624Z,0.57
2023-01-11T05:51:35.386Z,0.50
2023-01-11T05:54:03.543Z,0.50
2023-01-11T05:56:30.305Z,0.40
2023-01-11T05:58:57.942Z,0.60
2023-01-11T06:01:25.158Z,0.50
2023-01-11T06:03:52.031Z,0.60
2023-01-11T06:06:20.121Z,0.50
2023-01-11T06:08:46.695Z,0.60
2023-01-11T06:11:14.562Z,0.60
2023-01-11T06:13:41.375Z,0.60
2023-01-11T06:16:11.202Z,0.40
2023-01-11T06:18:39.984Z,0.70
2023-01-11T06:21:07.198Z,0.57
2023-01-11T06:23:36.614Z,0.70
2023-01-11T06:26:08.939Z,0.70
2023-01-11T06:28:35.924Z,0.70
2023-01-11T06:31:03.221Z,0.70
2023-01-11T06:33:30.076Z,0.60
2023-01-11T06:35:57.355Z,0.50
2023-01-11T06:38:25.510Z,0.60
2023-01-11T06:40:57.511Z,0.90
2023-01-11T06:43:25.165Z,0.73
2023-01-11T06:45:52.197Z,0.50
2023-01-11T06:48:19.955Z,0.77
2023-01-11T06:50:58.147Z,0.50
2023-01-11T06:53:28.441Z,0.50
2023-01-11T06:55:56.930Z,0.70
2023-01-11T06:58:24.683Z,0.70
2023-01-11T07:00:52.793Z,0.70
2023-01-11T07:03:25.366Z,0.50
2023-01-11T07:05:57.135Z,0.60
2023-01-11T07:08:34.999Z,0.80
2023-01-11T07:11:01.507Z,0.60
2023-01-11T07:13:28.272Z,0.60
2023-01-11T07:15:57.695Z,0.70
2023-01-11T07:18:24.262Z,0.60
2023-01-11T07:20:51.278Z,0.63
2023-01-11T07:23:17.831Z,0.90
2023-01-11T07:25:46.641Z,0.70
2023-01-11T07:28:13.205Z,0.93
2023-01-11T07:30:56.716Z,0.70
2023-01-11T07:33:25.181Z,0.80
2023-01-11T07:35:51.805Z,0.83
2023-01-11T07:38:19.188Z,0.83
2023-01-11T07:40:45.795Z,0.90
2023-01-11T07:43:18.254Z,0.80
2023-01-11T07:45:49.224Z,0.87
2023-01-11T07:48:24.506Z,0.97
2023-01-11T07:50:52.485Z,0.60
2023-01-11T07:53:19.359Z,0.70
2023-01-11T07:55:45.773Z,0.70
2023-01-11T07:58:13.354Z,0.70
2023-01-11T08:00:43.379Z,0.90
2023-01-11T08:03:10.202Z,0.60
2023-01-11T08:05:37.324Z,0.70
2023-01-11T08:08:05.938Z,0.90
2023-01-11T08:10:33.075Z,0.50
2023-01-11T08:13:18.218Z,0.70
2023-01-11T08:15:44.924Z,0.60
2023-01-11T08:18:12.788Z,0.60
2023-01-11T08:20:39.854Z,0.60
2023-01-11T08:23:10.110Z,0.70
2023-01-11T08:25:37.635Z,0.70
2023-01-11T08:28:06.595Z,0.53
2023-01-11T08:30:33.725Z,0.50
2023-01-11T08:33:01.799Z,0.80
2023-01-11T08:35:29.091Z,0.50
2023-01-11T08:37:55.637Z,0.50
2023-01-11T08:40:24.058Z,0.50
2023-01-11T08:42:56.657Z,0.53
2023-01-11T08:45:23.355Z,0.67
2023-01-11T08:47:52.762Z,0.60
2023-01-11T08:50:21.242Z,0.83
2023-01-11T08:52:50.739Z,1.00
2023-01-11T08:55:17.992Z,0.70
2023-01-11T08:57:45.039Z,0.80
2023-01-11T09:00:12.057Z,0.77
2023-01-11T09:02:38.910Z,0.77
2023-01-11T09:05:05.933Z,0.70
2023-01-11T09:07:33.297Z,0.87
2023-01-11T09:09:59.774Z,0.93
2023-01-11T09:12:28.966Z,0.90
2023-01-11T09:14:55.555Z,1.00
2023-01-11T09:17:22.197Z,0.90
2023-01-11T09:19:48.764Z,0.90
2023-01-11T09:22:15.854Z,0.70
2023-01-11T09:24:42.367Z,0.80
2023-01-11T09:27:09.152Z,0.80
2023-01-11T09:29:37.382Z,0.67
2023-01-11T09:32:04.913Z,0.90
2023-01-11T09:34:31.733Z,0.90
2023-01-11T09:37:00.573Z,0.70
2023-01-11T09:39:29.831Z,1.03
2023-01-11T09:42:15.395Z,0.90
2023-01-11T09:44:51.334Z,1.30
2023-01-11T09:47:28.075Z,0.80
2023-01-11T09:49:58.565Z,0.70
2023-01-11T09:52:39.727Z,0.93
2023-01-11T09:55:12.685Z,0.90
2023-01-11T09:57:42.372Z,0.80
2023-01-11T10:00:18.280Z,0.70
2023-01-11T10:03:12.883Z,0.73
2023-01-11T10:06:06.101Z,0.80
2023-01-11T10:18:28.359Z,0.67
2023-01-11T10:18:38.577Z,0.87
2023-01-11T10:21:16.864Z,0.90
2023-01-11T10:23:56.190Z,0.80
2023-01-11T10:26:29.124Z,0.80
2023-01-11T10:29:35.145Z,0.70
2023-01-11T10:32:02.785Z,0.83
2023-01-11T10:34:59.749Z,1.00
2023-01-11T10:37:55.997Z,0.73
2023-01-11T10:40:37.615Z,0.70
2023-01-11T10:43:13.190Z,0.70
2023-01-11T10:45:44.401Z,0.77
2023-01-11T10:48:19.927Z,0.50
2023-01-11T10:51:12.985Z,0.73
2023-01-11T10:54:01.253Z,0.60
2023-01-11T10:57:02.366Z,0.60
2023-01-11T11:00:02.135Z,0.50
2023-01-11T11:02:41.025Z,0.70
2023-01-11T11:05:30.613Z,0.50
2023-01-11T11:08:18.822Z,0.80
2023-01-11T11:10:49.667Z,0.50
2023-01-11T11:13:43.614Z,0.40
2023-01-11T11:16:22.333Z,0.60
2023-01-11T11:18:54.426Z,0.60
2023-01-11T11:21:29.529Z,0.47
2023-01-11T11:24:02.901Z,0.73
2023-01-11T11:26:38.230Z,0.53
2023-01-11T11:29:11.103Z,0.60
2023-01-11T11:31:43.819Z,0.50
2023-01-11T11:34:17.666Z,0.57
2023-01-11T11:36:51.876Z,0.50
2023-01-11T11:39:22.212Z,0.57
2023-01-11T11:42:06.844Z,0.60
2023-01-11T11:44:34.186Z,0.70
2023-01-11T11:47:14.795Z,0.70
2023-01-11T11:49:42.197Z,0.70
2023-01-11T11:52:15.000Z,0.50
2023-01-11T11:54:56.765Z,0.40
2023-01-11T11:57:35.233Z,0.57
2023-01-11T12:00:25.475Z,0.50
2023-01-11T12:03:02.806Z,0.60
2023-01-11T12:05:32.318Z,0.47
2023-01-11T12:08:01.902Z,0.50
2023-01-11T12:10:30.739Z,0.40
2023-01-11T12:13:02.911Z,0.63
2023-01-11T12:15:34.492Z,0.50
2023-01-11T12:18:25.175Z,0.60
2023-01-11T12:20:52.240Z,0.50
2023-01-11T12:23:22.158Z,1.10
2023-01-11T12:26:05.954Z,0.50
2023-01-11T12:29:08.218Z,0.60
2023-01-11T12:31:34.636Z,0.70
2023-01-11T12:34:20.783Z,0.67
2023-01-11T12:37:15.712Z,0.77
2023-01-11T12:39:45.234Z,0.80
2023-01-11T12:42:36.875Z,0.80
2023-01-11T12:45:09.459Z,0.70
2023-01-11T12:47:43.954Z,0.80
2023-01-11T12:50:35.016Z,0.70
2023-01-11T12:53:07.880Z,0.60
2023-01-11T12:56:01.047Z,0.90
2023-01-11T12:58:55.236Z,0.70
2023-01-11T13:02:00.312Z,0.80
2023-01-11T13:04:45.573Z,0.70
2023-01-11T13:07:34.206Z,0.83
2023-01-11T13:10:21.136Z,0.70
2023-01-11T13:13:21.846Z,0.90
2023-01-11T13:18:59.021Z,0.73
2023-01-11T13:21:43.333Z,0.70
2023-01-11T13:24:19.897Z,0.80
2023-01-11T13:26:50.667Z,1.20
2023-01-11T13:29:27.916Z,0.90
2023-01-11T13:31:59.168Z,0.73
2023-01-11T13:35:04.871Z,0.80
2023-01-11T13:37:40.135Z,0.90
2023-01-11T13:40:20.412Z,1.00
2023-01-11T13:42:54.867Z,1.00
2023-01-11T13:45:30.249Z,0.83
2023-01-11T13:48:02.254Z,0.77
2023-01-11T13:50:36.357Z,1.10
2023-01-11T13:53:22.545Z,0.80
2023-01-11T13:55:51.631Z,0.80
2023-01-11T13:58:30.582Z,1.00
2023-01-11T14:01:03.189Z,0.97
2023-01-11T14:03:37.042Z,0.60
2023-01-11T14:06:26.707Z,0.70
2023-01-11T14:09:05.513Z,0.70
2023-01-11T14:11:54.845Z,0.63
2023-01-11T14:14:40.127Z,0.70
2023-01-11T14:17:42.879Z,1.03
2023-01-11T14:20:46.178Z,0.60
2023-01-11T14:23:13.983Z,0.67
2023-01-11T14:26:02.833Z,0.90
2023-01-11T14:28:44.664Z,0.80
2023-01-11T14:31:32.473Z,0.80
2023-01-11T14:34:05.046Z,0.47
2023-01-11T14:36:48.425Z,0.60
2023-01-11T14:39:40.437Z,0.83
2023-01-11T14:42:30.444Z,0.80
2023-01-11T14:45:28.307Z,0.70
2023-01-11T14:48:19.318Z,0.63
2023-01-11T14:51:32.447Z,0.77
2023-01-11T14:54:20.654Z,0.80
2023-01-11T14:56:51.104Z,0.47
2023-01-11T14:59:39.969Z,0.50
2023-01-11T15:02:06.726Z,0.40
2023-01-11T15:04:35.331Z,0.60
2023-01-11T15:07:21.057Z,0.60
2023-01-11T15:09:50.113Z,0.63
2023-01-11T15:12:33.957Z,0.40
2023-01-11T15:15:12.549Z,0.50
2023-01-11T15:17:59.102Z,0.50
2023-01-11T15:20:27.965Z,0.87
2023-01-11T15:23:02.534Z,0.70
2023-01-11T15:25:34.632Z,0.67
2023-01-11T15:28:05.441Z,0.80
2023-01-11T15:30:31.876Z,1.07
2023-01-11T15:33:45.669Z,0.73
2023-01-11T15:36:12.256Z,0.97
2023-01-11T15:38:52.587Z,1.00
2023-01-11T15:41:53.137Z,0.80
2023-01-11T15:44:54.597Z,1.00
2023-01-11T15:47:36.287Z,0.70
2023-01-11T15:50:31.701Z,0.97
2023-01-11T15:53:16.701Z,0.80
2023-01-11T15:56:18.503Z,0.60
2023-01-11T15:59:08.686Z,0.87
2023-01-11T16:01:55.058Z,1.00
2023-01-11T16:05:01.117Z,0.63
2023-01-11T16:07:56.582Z,1.40
2023-01-11T16:10:51.500Z,1.00
2023-01-11T16:13:39.657Z,1.10
2023-01-11T16:16:21.307Z,1.03
2023-01-11T16:18:57.783Z,0.73
2023-01-11T16:21:29.777Z,1.17
2023-01-11T16:23:56.639Z,0.87
2023-01-11T16:26:23.383Z,0.80
2023-01-11T16:28:57.181Z,1.40
2023-01-11T16:31:25.194Z,1.00
2023-01-11T16:33:53.252Z,1.40
2023-01-11T16:36:22.092Z,1.20
2023-01-11T16:39:06.629Z,1.37
2023-01-11T16:42:10.633Z,1.40
2023-01-11T16:44:45.946Z,1.10
2023-01-11T16:47:20.577Z,1.47
2023-01-11T16:49:49.726Z,1.30
2023-01-11T16:52:28.201Z,1.20
2023-01-11T16:54:57.073Z,1.07
2023-01-11T16:57:30.441Z,1.20
2023-01-11T17:00:18.568Z,0.93
2023-01-11T17:02:48.773Z,1.30
2023-01-11T17:05:23.689Z,0.80
2023-01-11T17:07:50.194Z,1.20
2023-01-11T17:10:25.647Z,1.30
2023-01-11T17:13:40.133Z,1.50
2023-01-11T17:16:10.477Z,1.30
2023-01-11T17:18:41.467Z,0.90
2023-01-11T17:21:27.404Z,1.20
2023-01-11T17:23:58.722Z,1.20
2023-01-11T17:26:32.751Z,1.50
2023-01-11T17:29:00.379Z,1.30
2023-01-11T17:31:31.788Z,1.70
2023-01-11T17:34:05.777Z,1.10
2023-01-11T17:36:33.036Z,2.20
2023-01-11T17:38:59.961Z,1.77
2023-01-11T17:41:46.895Z,1.30
2023-01-11T17:44:41.703Z,1.70
2023-01-11T17:47:12.558Z,1.90
2023-01-11T17:49:39.532Z,1.40
2023-01-11T17:52:20.985Z,1.00
2023-01-11T17:54:58.725Z,1.10
2023-01-11T17:57:25.313Z,1.23
2023-01-11T18:00:28.593Z,0.80
2023-01-11T18:02:55.847Z,0.97
2023-01-11T18:05:27.169Z,0.87
2023-01-11T18:07:57.536Z,0.80
2023-01-11T18:10:27.240Z,0.80
2023-01-11T18:12:56.229Z,0.80
2023-01-11T18:15:33.525Z,0.50
2023-01-11T18:18:01.211Z,0.70
2023-01-11T18:20:35.140Z,0.57
2023-01-11T18:23:10.683Z,0.60
2023-01-11T18:25:37.709Z,0.60
2023-01-11T18:28:21.949Z,0.70
2023-01-11T18:30:53.605Z,0.70
2023-01-11T18:33:23.021Z,0.80
2023-01-11T18:35:52.518Z,0.87
2023-01-11T18:38:25.227Z,0.97
2023-01-11T18:40:53.441Z,0.97
2023-01-11T18:43:26.122Z,0.90
2023-01-11T18:45:52.948Z,1.00
2023-01-11T18:48:21.855Z,0.80
2023-01-11T18:50:51.107Z,1.30
2023-01-11T18:53:18.349Z,1.20
2023-01-11T18:55:45.949Z,1.77
2023-01-11T18:58:12.424Z,1.73
2023-01-11T19:00:40.981Z,1.40
2023-01-11T19:03:10.308Z,1.43
2023-01-11T19:05:36.774Z,1.30
2023-01-11T19:08:03.192Z,1.40
2023-01-11T19:10:29.665Z,1.73
2023-01-11T19:12:57.349Z,0.90
2023-01-11T19:15:24.056Z,1.17
2023-01-11T19:17:50.400Z,1.23
2023-01-11T19:20:16.814Z,1.10
2023-01-11T19:22:43.248Z,1.40
2023-01-11T19:25:09.957Z,1.07
2023-01-11T19:27:37.877Z,1.70
2023-01-11T19:30:06.073Z,1.17
2023-01-11T19:32:32.714Z,1.70
2023-01-11T19:34:59.563Z,1.50
2023-01-11T19:37:27.583Z,2.27
2023-01-11T19:39:54.057Z,1.70
2023-01-11T19:42:21.011Z,1.60
2023-01-11T19:44:47.443Z,1.70
2023-01-11T19:47:16.899Z,1.60
2023-01-11T19:49:43.705Z,1.43
2023-01-11T19:52:14.450Z,2.03
2023-01-11T19:54:42.555Z,1.23
2023-01-11T19:57:14.270Z,1.20
2023-01-11T19:59:41.497Z,1.10
2023-01-11T20:02:09.668Z,1.93
2023-01-11T20:04:37.147Z,1.20
2023-01-11T20:07:03.742Z,1.67
2023-01-11T20:09:30.291Z,1.67
2023-01-11T20:11:58.688Z,1.27
2023-01-11T20:14:25.511Z,2.03
2023-01-11T20:16:51.945Z,1.47
2023-01-11T20:19:18.387Z,1.30
2023-01-11T20:21:45.019Z,1.67
2023-01-11T20:24:12.995Z,2.67
2023-01-11T20:26:39.882Z,2.70
2023-01-11T20:29:07.138Z,2.27
2023-01-11T20:31:35.527Z,1.93
2023-01-11T20:34:10.400Z,1.97
2023-01-11T20:36:37.358Z,1.77
2023-01-11T20:39:04.842Z,1.23
2023-01-11T20:41:50.046Z,1.40
2023-01-11T20:44:31.968Z,1.63
2023-01-11T20:46:59.517Z,2.20
2023-01-11T20:49:29.135Z,2.10
2023-01-11T20:51:56.374Z,2.30
2023-01-11T20:54:22.946Z,2.70
2023-01-11T20:56:49.560Z,2.53
2023-01-11T20:59:19.600Z,2.30
2023-01-11T21:01:47.436Z,1.57
2023-01-11T21:04:14.494Z,1.50
2023-01-11T21:06:43.515Z,1.40
2023-01-11T21:09:12.679Z,1.63
2023-01-11T21:11:40.199Z,1.40
2023-01-11T21:14:12.000Z,2.17
2023-01-11T21:16:44.255Z,2.70
2023-01-11T21:19:12.929Z,2.27
2023-01-11T21:21:40.023Z,2.20
2023-01-11T21:24:07.115Z,1.67
2023-01-11T21:26:34.835Z,1.60
2023-01-11T21:29:04.350Z,2.20
2023-01-11T21:31:33.620Z,1.40
2023-01-11T21:34:00.828Z,1.67
2023-01-11T21:36:34.316Z,1.60
2023-01-11T21:39:02.402Z,1.73
2023-01-11T21:41:48.940Z,1.37
2023-01-11T21:44:16.432Z,1.77
2023-01-11T21:46:43.648Z,1.70
2023-01-11T21:49:11.063Z,2.20
2023-01-11T21:51:38.238Z,1.67
2023-01-11T21:54:07.267Z,1.53
2023-01-11T21:56:34.176Z,1.30
2023-01-11T21:59:00.662Z,1.30
2023-01-11T22:01:27.526Z,1.20
2023-01-11T22:03:54.166Z,1.50
2023-01-11T22:06:20.755Z,1.67
2023-01-11T22:08:47.603Z,1.43
2023-01-11T22:11:16.031Z,1.17
2023-01-11T22:13:43.171Z,1.57
2023-01-11T22:16:14.725Z,0.87
2023-01-11T22:18:42.075Z,0.90
2023-01-11T22:21:14.223Z,1.00
2023-01-11T22:23:41.397Z,0.77
2023-01-11T22:26:13.408Z,0.80
2023-01-11T22:28:58.955Z,1.20
2023-01-11T22:31:27.528Z,1.53
2023-01-11T22:33:54.834Z,1.27
2023-01-11T22:36:23.491Z,1.40
2023-01-11T22:38:50.076Z,1.23
2023-01-11T22:41:16.957Z,1.17
2023-01-11T22:43:44.060Z,1.30
2023-01-11T22:46:19.499Z,1.77
2023-01-11T22:48:48.320Z,1.30
2023-01-11T22:51:16.821Z,1.10
2023-01-11T22:53:45.186Z,1.00
2023-01-11T22:56:13.077Z,1.10
2023-01-11T22:58:39.491Z,1.43
2023-01-11T23:01:12.006Z,1.40
2023-01-11T23:03:39.212Z,1.20
2023-01-11T23:06:05.774Z,1.40
2023-01-11T23:08:40.796Z,1.43
2023-01-11T23:11:13.820Z,1.27
2023-01-11T23:13:54.820Z,1.23
2023-01-11T23:16:22.253Z,1.07
2023-01-11T23:18:48.735Z,1.00
2023-01-11T23:21:16.823Z,0.90
2023-01-11T23:23:43.426Z,1.17
2023-01-11T23:26:11.848Z,1.40
2023-01-11T23:28:39.214Z,0.87
2023-01-11T23:31:17.709Z,1.10
2023-01-11T23:33:46.010Z,1.23
2023-01-11T23:36:13.172Z,1.30
2023-01-11T23:38:39.594Z,1.00
2023-01-11T23:41:27.076Z,1.10
2023-01-11T23:43:53.516Z,1.00
2023-01-11T23:46:39.163Z,1.10
2023-01-11T23:49:07.345Z,1.20
2023-01-11T23:51:34.887Z,1.23
2023-01-11T23:54:03.114Z,1.33
2023-01-11T23:56:30.835Z,1.30
2023-01-11T23:58:57.651Z,0.90
